Campos Belos, Brazil
Current Conditions -  °F | °C
As of 12:00 PM on Monday 26 Jan 2015 (Local Time) from SBBR Reporting Station
Broken Clouds Broken Clouds  
Wind Chill: 73°   Ceiling: 10000
Heat Index: 73°   Visibility: 6mi
Dew Point: 57°   Wind: 6mph
Humidity: 57%   Direction: 10°N
Pressure: 30.15"   Gusts: NA
Location:  13.04°S, 46.77°W
Report Text: SBBR 261400Z 01005KT 9999 SCT025 BKN100 23/14 Q1021
Loading
Personal Weather Stations






























Interactive Weather Map New forecast layout! Learn more

10-Day Weather Forecast

Advertisements
Track Severe Weather on mobile